createdAt,value
2022-10-12T00:01:49.549Z,13.67
2022-10-12T00:04:17.028Z,13.77
2022-10-12T00:06:44.469Z,14.07
2022-10-12T00:09:11.941Z,13.53
2022-10-12T00:11:40.711Z,14.43
2022-10-12T00:14:09.481Z,14.67
2022-10-12T00:16:37.575Z,13.93
2022-10-12T00:19:05.103Z,13.57
2022-10-12T00:21:32.610Z,14.70
2022-10-12T00:24:01.161Z,16.00
2022-10-12T00:26:29.293Z,15.53
2022-10-12T00:28:58.110Z,15.17
2022-10-12T00:31:27.235Z,17.20
2022-10-12T00:33:54.799Z,15.37
2022-10-12T00:36:23.198Z,15.43
2022-10-12T00:38:51.793Z,15.57
2022-10-12T00:41:20.045Z,14.70
2022-10-12T00:43:48.236Z,15.63
2022-10-12T00:46:19.525Z,14.77
2022-10-12T00:48:49.618Z,15.50
2022-10-12T00:51:17.710Z,15.20
2022-10-12T00:53:48.386Z,15.43
2022-10-12T00:56:19.003Z,14.97
2022-10-12T00:58:46.825Z,15.00
2022-10-12T01:01:14.547Z,14.57
2022-10-12T01:03:42.322Z,15.70
2022-10-12T01:06:11.093Z,16.27
2022-10-12T01:08:39.024Z,15.30
2022-10-12T01:11:06.583Z,14.03
2022-10-12T01:13:34.361Z,14.90
2022-10-12T01:16:06.431Z,15.43
2022-10-12T01:18:38.166Z,14.80
2022-10-12T01:21:10.977Z,14.83
2022-10-12T01:23:51.902Z,16.80
2022-10-12T01:26:34.722Z,15.20
2022-10-12T01:29:08.870Z,13.87
2022-10-12T01:31:40.084Z,15.57
2022-10-12T01:34:10.788Z,14.70
2022-10-12T01:36:40.976Z,13.53
2022-10-12T01:39:13.332Z,15.13
2022-10-12T01:41:43.431Z,14.40
2022-10-12T01:44:10.907Z,15.47
2022-10-12T01:46:46.847Z,14.97
2022-10-12T01:49:16.477Z,13.90
2022-10-12T01:51:50.487Z,14.40
2022-10-12T01:54:20.819Z,15.83
2022-10-12T01:56:51.876Z,15.67
2022-10-12T01:59:21.224Z,14.40
2022-10-12T02:01:52.613Z,14.67
2022-10-12T02:04:22.954Z,15.13
2022-10-12T02:06:52.451Z,15.80
2022-10-12T02:09:22.058Z,15.17
2022-10-12T02:11:51.699Z,14.33
2022-10-12T02:14:20.616Z,14.67
2022-10-12T02:16:51.052Z,14.50
2022-10-12T02:19:21.869Z,15.33
2022-10-12T02:21:49.895Z,15.20
2022-10-12T02:24:18.513Z,16.17
2022-10-12T02:26:48.018Z,14.97
2022-10-12T02:29:19.520Z,15.67
2022-10-12T02:31:49.311Z,16.20
2022-10-12T02:34:18.195Z,15.70
2022-10-12T02:36:48.395Z,16.43
2022-10-12T02:39:17.487Z,16.00
2022-10-12T02:41:47.513Z,15.47
2022-10-12T02:44:16.961Z,15.43
2022-10-12T02:46:45.598Z,15.53
2022-10-12T02:49:14.164Z,16.80
2022-10-12T02:51:42.072Z,15.97
2022-10-12T02:54:10.923Z,15.83
2022-10-12T02:56:43.130Z,15.83
2022-10-12T02:59:10.611Z,16.20
2022-10-12T03:01:38.142Z,16.13
2022-10-12T03:04:05.789Z,16.70
2022-10-12T03:06:33.348Z,14.70
2022-10-12T03:09:01.630Z,14.40
2022-10-12T03:11:30.457Z,15.13
2022-10-12T03:13:57.888Z,16.33
2022-10-12T03:16:25.382Z,15.07
2022-10-12T03:18:52.831Z,15.10
2022-10-12T03:21:20.264Z,14.67
2022-10-12T03:23:47.696Z,15.40
2022-10-12T03:26:15.079Z,14.50
2022-10-12T03:28:43.915Z,14.83
2022-10-12T03:31:11.317Z,15.10
2022-10-12T03:33:38.726Z,15.50
2022-10-12T03:36:06.410Z,14.50
2022-10-12T03:38:33.801Z,14.30
2022-10-12T03:41:13.478Z,14.30
2022-10-12T03:43:41.362Z,13.70
2022-10-12T03:46:10.108Z,14.57
2022-10-12T03:48:37.651Z,12.70
2022-10-12T03:51:05.220Z,13.23
2022-10-12T03:53:32.777Z,12.47
2022-10-12T03:56:00.176Z,13.40
2022-10-12T03:58:27.588Z,11.33
2022-10-12T04:00:55.131Z,11.90
2022-10-12T04:03:23.985Z,12.87
2022-10-12T04:05:55.128Z,11.73
2022-10-12T04:08:22.731Z,12.27
2022-10-12T04:10:51.259Z,12.43
2022-10-12T04:13:19.023Z,11.87
2022-10-12T04:15:46.436Z,12.70
2022-10-12T04:18:13.959Z,12.83
2022-10-12T04:20:42.760Z,11.97
2022-10-12T04:23:10.354Z,11.97
2022-10-12T04:25:37.814Z,11.53
2022-10-12T04:28:05.203Z,11.50
2022-10-12T04:30:33.061Z,12.13
2022-10-12T04:33:00.470Z,11.30
2022-10-12T04:35:27.892Z,12.17
2022-10-12T04:37:56.633Z,12.47
2022-10-12T04:40:24.157Z,12.17
2022-10-12T04:42:51.586Z,13.30
2022-10-12T04:45:18.995Z,13.53
2022-10-12T04:47:46.393Z,13.57
2022-10-12T04:50:13.873Z,13.37
2022-10-12T04:52:41.389Z,12.77
2022-10-12T04:55:10.494Z,12.70
2022-10-12T04:57:38.560Z,12.43
2022-10-12T05:00:07.019Z,13.17
2022-10-12T05:02:34.436Z,11.93
2022-10-12T05:05:01.875Z,12.03
2022-10-12T05:07:29.375Z,11.53
2022-10-12T05:09:56.802Z,12.60
2022-10-12T05:12:25.560Z,12.17
2022-10-12T05:14:52.961Z,12.13
2022-10-12T05:17:20.525Z,12.70
2022-10-12T05:19:48.179Z,10.57
2022-10-12T05:22:15.588Z,11.27
2022-10-12T05:24:43.203Z,12.43
2022-10-12T05:27:10.833Z,11.80
2022-10-12T05:29:39.775Z,12.23
2022-10-12T05:32:07.394Z,10.40
2022-10-12T05:34:34.970Z,11.73
2022-10-12T05:37:02.718Z,14.67
2022-10-12T05:39:30.346Z,10.87
2022-10-12T05:41:58.625Z,11.70
2022-10-12T05:44:26.140Z,11.27
2022-10-12T05:46:54.948Z,10.57
2022-10-12T05:49:22.345Z,11.23
2022-10-12T05:51:49.764Z,10.87
2022-10-12T05:54:17.209Z,10.17
2022-10-12T05:56:44.668Z,10.80
2022-10-12T05:59:12.444Z,10.87
2022-10-12T06:01:40.379Z,11.07
2022-10-12T06:04:09.218Z,10.67
2022-10-12T06:06:36.717Z,11.10
2022-10-12T06:09:04.250Z,11.70
2022-10-12T06:11:34.098Z,13.00
2022-10-12T06:14:03.800Z,10.83
2022-10-12T06:16:31.323Z,11.27
2022-10-12T06:18:58.810Z,12.10
2022-10-12T06:21:34.956Z,10.83
2022-10-12T06:24:02.836Z,11.57
2022-10-12T06:26:30.278Z,12.00
2022-10-12T06:28:57.825Z,11.77
2022-10-12T06:31:25.353Z,11.70
2022-10-12T06:33:53.352Z,11.87
2022-10-12T06:36:20.851Z,13.30
2022-10-12T06:38:49.673Z,11.43
2022-10-12T06:41:17.139Z,11.70
2022-10-12T06:43:44.636Z,11.97
2022-10-12T06:46:13.209Z,12.03
2022-10-12T06:48:40.686Z,11.23
2022-10-12T06:51:08.164Z,11.00
2022-10-12T06:53:36.558Z,11.90
2022-10-12T06:56:07.936Z,12.20
2022-10-12T06:58:35.541Z,11.63
2022-10-12T07:01:04.065Z,12.13
2022-10-12T07:03:31.617Z,12.43
2022-10-12T07:06:05.723Z,11.90
2022-10-12T07:08:33.090Z,12.17
2022-10-12T07:11:01.545Z,11.97
2022-10-12T07:13:30.326Z,12.07
2022-10-12T07:15:57.795Z,12.03
2022-10-12T07:18:25.351Z,12.10
2022-10-12T07:20:55.017Z,11.90
2022-10-12T07:23:22.450Z,13.07
2022-10-12T07:25:50.139Z,12.30
2022-10-12T07:28:17.779Z,11.97
2022-10-12T07:30:46.831Z,11.73
2022-10-12T07:33:14.258Z,12.63
2022-10-12T07:36:03.173Z,11.40
2022-10-12T07:38:29.225Z,11.93
2022-10-12T07:40:59.241Z,12.00
2022-10-12T07:43:26.801Z,12.50
2022-10-12T07:45:55.833Z,12.03
2022-10-12T07:48:23.705Z,12.03
2022-10-12T07:50:51.102Z,11.20
2022-10-12T07:53:18.701Z,12.00
2022-10-12T07:55:46.136Z,12.20
2022-10-12T07:58:13.795Z,12.07
2022-10-12T08:00:41.183Z,11.17
2022-10-12T08:03:10.831Z,11.50
2022-10-12T08:05:38.342Z,11.43
2022-10-12T08:08:08.754Z,11.43
2022-10-12T08:10:36.892Z,10.90
2022-10-12T08:13:05.648Z,11.07
2022-10-12T08:15:33.091Z,10.53
2022-10-12T08:18:00.610Z,11.17
2022-10-12T08:20:29.572Z,11.50
2022-10-12T08:22:57.317Z,12.13
2022-10-12T08:25:24.705Z,11.30
2022-10-12T08:27:52.215Z,12.23
2022-10-12T08:30:20.105Z,13.03
2022-10-12T08:32:47.463Z,12.43
2022-10-12T08:35:14.973Z,12.40
2022-10-12T08:37:43.759Z,12.43
2022-10-12T08:40:14.387Z,14.13
2022-10-12T08:42:46.020Z,12.40
2022-10-12T08:45:30.643Z,11.90
2022-10-12T08:48:00.527Z,14.03
2022-10-12T08:50:30.541Z,13.00
2022-10-12T08:53:01.338Z,12.57
2022-10-12T08:55:34.144Z,12.93
2022-10-12T08:58:01.732Z,12.70
2022-10-12T09:00:30.627Z,13.80
2022-10-12T09:03:05.591Z,13.43
2022-10-12T09:05:35.908Z,12.87
2022-10-12T09:08:07.880Z,12.70
2022-10-12T09:10:42.571Z,13.27
2022-10-12T09:13:14.860Z,12.00
2022-10-12T09:15:45.287Z,13.63
2022-10-12T09:18:16.929Z,13.33
2022-10-12T09:20:47.570Z,14.00
2022-10-12T09:23:23.931Z,14.27
2022-10-12T09:25:51.392Z,12.90
2022-10-12T09:28:22.816Z,13.87
2022-10-12T09:30:58.221Z,12.33
2022-10-12T09:33:27.566Z,11.47
2022-10-12T09:35:56.172Z,12.57
2022-10-12T09:38:25.397Z,13.20
2022-10-12T09:40:52.884Z,12.70
2022-10-12T09:43:20.344Z,13.10
2022-10-12T09:45:48.805Z,11.98
2022-10-12T09:48:17.971Z,12.57
2022-10-12T09:50:46.677Z,13.55
2022-10-12T09:53:16.059Z,12.85
2022-10-12T09:55:52.678Z,13.57
2022-10-12T09:58:21.313Z,13.60
2022-10-12T10:01:11.554Z,12.30
2022-10-12T10:03:39.048Z,12.57
2022-10-12T10:06:06.813Z,12.85
2022-10-12T10:08:40.504Z,12.50
2022-10-12T10:11:14.017Z,12.23
2022-10-12T10:13:47.328Z,12.88
2022-10-12T10:16:14.816Z,12.38
2022-10-12T10:18:44.104Z,12.95
2022-10-12T10:21:12.115Z,13.48
2022-10-12T10:23:43.378Z,12.40
2022-10-12T10:26:13.686Z,12.70
2022-10-12T10:28:42.014Z,12.80
2022-10-12T10:31:21.300Z,11.63
2022-10-12T10:34:04.148Z,12.90
2022-10-12T10:36:33.057Z,12.38
2022-10-12T10:39:02.376Z,12.20
2022-10-12T10:41:36.646Z,11.88
2022-10-12T10:44:04.560Z,11.85
2022-10-12T10:46:33.335Z,12.95
2022-10-12T10:49:06.406Z,13.30
2022-10-12T10:51:41.527Z,12.88
2022-10-12T10:54:15.693Z,12.73
2022-10-12T10:56:46.543Z,12.18
2022-10-12T10:59:17.792Z,12.57
2022-10-12T11:01:52.292Z,12.82
2022-10-12T11:04:21.952Z,11.73
2022-10-12T11:06:51.515Z,11.05
2022-10-12T11:09:20.990Z,12.55
2022-10-12T11:11:55.090Z,11.60
2022-10-12T11:14:26.275Z,12.27
2022-10-12T11:16:56.665Z,11.13
2022-10-12T11:19:31.308Z,11.90
2022-10-12T11:22:00.472Z,11.15
2022-10-12T11:24:29.484Z,12.27
2022-10-12T11:27:03.574Z,10.43
2022-10-12T11:29:31.126Z,10.02
2022-10-12T11:32:03.116Z,11.55
2022-10-12T11:34:32.398Z,12.13
2022-10-12T11:37:19.538Z,12.20
2022-10-12T11:39:53.633Z,11.32
2022-10-12T11:42:26.516Z,11.13
2022-10-12T11:44:54.475Z,10.73
2022-10-12T11:47:27.020Z,10.90
2022-10-12T11:49:56.684Z,11.30
2022-10-12T11:52:29.093Z,11.82
2022-10-12T11:55:00.706Z,12.60
2022-10-12T11:57:31.012Z,12.60
2022-10-12T12:00:00.852Z,10.85
2022-10-12T12:02:30.214Z,10.75
2022-10-12T12:04:58.891Z,11.20
2022-10-12T12:07:46.010Z,11.43
2022-10-12T12:10:30.694Z,11.07
2022-10-12T12:13:23.331Z,10.80
2022-10-12T12:16:14.848Z,10.00
2022-10-12T12:19:00.905Z,10.68
2022-10-12T12:21:28.462Z,10.73
2022-10-12T12:23:56.634Z,9.68
2022-10-12T12:26:26.107Z,10.13
2022-10-12T12:29:09.348Z,9.32
2022-10-12T12:31:36.973Z,8.73
2022-10-12T12:34:05.147Z,9.45
2022-10-12T12:36:33.800Z,10.07
2022-10-12T12:39:02.094Z,9.98
2022-10-12T12:41:51.985Z,10.90
2022-10-12T12:44:37.920Z,10.75
2022-10-12T12:47:44.121Z,11.82
2022-10-12T12:50:28.900Z,10.57
2022-10-12T12:53:01.678Z,11.88
2022-10-12T12:56:02.342Z,11.65
2022-10-12T12:58:40.118Z,11.45
2022-10-12T13:01:17.954Z,11.45
2022-10-12T13:04:05.693Z,10.25
2022-10-12T13:06:54.163Z,8.88
2022-10-12T13:09:39.601Z,11.02
2022-10-12T13:12:14.568Z,11.95
2022-10-12T13:14:50.123Z,9.90
2022-10-12T13:17:33.297Z,9.50
2022-10-12T13:20:02.291Z,10.90
2022-10-12T13:22:33.024Z,10.00
2022-10-12T13:25:03.151Z,8.63
2022-10-12T13:27:34.107Z,8.63
2022-10-12T13:30:05.572Z,9.43
2022-10-12T13:32:41.397Z,8.35
2022-10-12T13:35:14.130Z,7.80
2022-10-12T13:37:41.826Z,7.93
2022-10-12T13:40:24.351Z,8.15
2022-10-12T13:42:51.991Z,8.55
2022-10-12T13:45:20.632Z,8.88
2022-10-12T13:47:49.684Z,10.38
2022-10-12T13:50:18.464Z,9.13
2022-10-12T13:52:53.133Z,10.32
2022-10-12T13:55:25.357Z,11.35
2022-10-12T13:57:53.061Z,12.63
2022-10-12T14:00:23.927Z,11.38
2022-10-12T14:02:57.522Z,12.40
2022-10-12T14:05:26.370Z,12.07
2022-10-12T14:07:55.759Z,12.73
2022-10-12T14:10:25.690Z,11.45
2022-10-12T14:12:54.284Z,13.38
2022-10-12T14:15:22.743Z,12.05
2022-10-12T14:17:52.412Z,13.27
2022-10-12T14:20:28.289Z,12.23
2022-10-12T14:22:56.609Z,12.05
2022-10-12T14:25:24.960Z,11.73
2022-10-12T14:27:55.577Z,12.77
2022-10-12T14:30:24.013Z,11.93
2022-10-12T14:32:55.041Z,12.57
2022-10-12T14:35:28.822Z,11.93
2022-10-12T14:37:57.101Z,12.00
2022-10-12T14:40:35.527Z,12.33
2022-10-12T14:43:04.745Z,12.80
2022-10-12T14:45:33.793Z,13.63
2022-10-12T14:48:01.710Z,11.85
2022-10-12T14:50:31.746Z,13.67
2022-10-12T14:53:01.223Z,15.00
2022-10-12T14:55:29.421Z,15.67
2022-10-12T14:57:57.113Z,16.37
2022-10-12T15:00:25.637Z,15.93
2022-10-12T15:02:53.494Z,15.70
2022-10-12T15:05:22.645Z,16.40
2022-10-12T15:07:51.714Z,15.47
2022-10-12T15:10:20.873Z,16.23
2022-10-12T15:12:48.555Z,15.80
2022-10-12T15:15:25.332Z,16.57
2022-10-12T15:17:55.574Z,17.50
2022-10-12T15:20:23.024Z,16.03
2022-10-12T15:22:51.832Z,16.43
2022-10-12T15:25:21.492Z,18.80
2022-10-12T15:27:48.953Z,18.57
2022-10-12T15:30:17.021Z,18.03
2022-10-12T15:32:44.492Z,18.50
2022-10-12T15:35:21.710Z,18.97
2022-10-12T15:37:49.738Z,19.27
2022-10-12T15:40:19.382Z,18.93
2022-10-12T15:42:47.381Z,18.57
2022-10-12T15:45:20.454Z,18.40
2022-10-12T15:47:48.563Z,18.60
2022-10-12T15:50:16.398Z,19.17
2022-10-12T15:52:44.022Z,20.33
2022-10-12T15:55:14.207Z,20.37
2022-10-12T15:57:43.130Z,20.20
2022-10-12T16:00:11.358Z,19.70
2022-10-12T16:02:38.968Z,19.67
2022-10-12T16:05:11.270Z,20.23
2022-10-12T16:07:38.948Z,20.17
2022-10-12T16:10:06.918Z,19.60
2022-10-12T16:12:34.435Z,20.70
2022-10-12T16:15:03.428Z,20.00
2022-10-12T16:17:30.983Z,21.10
2022-10-12T16:19:58.622Z,21.03
2022-10-12T16:22:26.202Z,20.20
2022-10-12T16:24:53.871Z,20.17
2022-10-12T16:27:21.444Z,20.03
2022-10-12T16:29:49.102Z,19.73
2022-10-12T16:32:18.002Z,20.03
2022-10-12T16:34:45.533Z,19.60
2022-10-12T16:37:13.024Z,19.67
2022-10-12T16:39:40.545Z,20.17
2022-10-12T16:42:08.098Z,21.53
2022-10-12T16:44:35.984Z,21.37
2022-10-12T16:47:03.463Z,21.43
2022-10-12T16:49:32.471Z,19.90
2022-10-12T16:52:00.006Z,20.53
2022-10-12T16:54:28.926Z,20.67
2022-10-12T16:56:56.455Z,20.57
2022-10-12T16:59:24.197Z,20.53
2022-10-12T17:01:51.697Z,19.10
2022-10-12T17:04:19.712Z,21.93
2022-10-12T17:06:49.278Z,22.27
2022-10-12T17:09:17.375Z,22.10
2022-10-12T17:11:44.965Z,22.17
2022-10-12T17:14:13.946Z,21.40
2022-10-12T17:16:50.646Z,21.00
2022-10-12T17:19:18.400Z,20.83
2022-10-12T17:21:47.505Z,20.90
2022-10-12T17:24:17.452Z,22.00
2022-10-12T17:26:45.388Z,23.97
2022-10-12T17:29:13.980Z,22.90
2022-10-12T17:31:41.638Z,21.77
2022-10-12T17:34:10.280Z,22.33
2022-10-12T17:36:37.883Z,23.03
2022-10-12T17:39:05.425Z,23.80
2022-10-12T17:41:35.071Z,23.93
2022-10-12T17:44:02.628Z,25.03
2022-10-12T17:46:30.239Z,24.83
2022-10-12T17:48:59.348Z,23.13
2022-10-12T17:51:27.127Z,24.73
2022-10-12T17:53:54.743Z,24.70
2022-10-12T17:56:22.793Z,25.00
2022-10-12T17:58:55.029Z,23.83
2022-10-12T18:01:22.566Z,24.07
2022-10-12T18:03:50.967Z,23.73
2022-10-12T18:06:20.223Z,23.23
2022-10-12T18:08:47.989Z,23.73
2022-10-12T18:11:16.726Z,24.07
2022-10-12T18:13:46.343Z,25.10
2022-10-12T18:16:15.620Z,26.50
2022-10-12T18:18:43.778Z,24.53
2022-10-12T18:21:13.110Z,26.90
2022-10-12T18:23:40.947Z,25.27
2022-10-12T18:26:09.152Z,27.33
2022-10-12T18:28:37.121Z,26.90
2022-10-12T18:31:04.832Z,27.27
2022-10-12T18:33:34.180Z,25.43
2022-10-12T18:36:05.231Z,26.30
2022-10-12T18:38:32.945Z,23.43
2022-10-12T18:41:03.970Z,25.03
2022-10-12T18:43:31.395Z,26.53
2022-10-12T18:45:58.999Z,26.20
2022-10-12T18:48:26.722Z,30.10
2022-10-12T18:50:55.714Z,31.03
2022-10-12T18:53:27.173Z,33.03
2022-10-12T18:55:54.796Z,31.47
2022-10-12T18:58:22.387Z,30.00
2022-10-12T19:00:49.939Z,31.13
2022-10-12T19:03:17.580Z,31.53
2022-10-12T19:05:45.169Z,30.13
2022-10-12T19:08:14.141Z,30.53
2022-10-12T19:10:42.206Z,30.90
2022-10-12T19:13:09.879Z,31.13
2022-10-12T19:15:37.771Z,29.50
2022-10-12T19:18:05.799Z,29.97
2022-10-12T19:20:33.553Z,30.27
2022-10-12T19:23:01.083Z,30.73
2022-10-12T19:25:30.016Z,32.20
2022-10-12T19:27:57.705Z,30.43
2022-10-12T19:30:29.119Z,30.27
2022-10-12T19:32:58.220Z,29.63
2022-10-12T19:35:28.503Z,27.93
2022-10-12T19:37:56.173Z,29.07
2022-10-12T19:40:24.743Z,29.43
2022-10-12T19:42:56.052Z,28.53
2022-10-12T19:45:24.868Z,28.13
2022-10-12T19:47:52.481Z,29.50
2022-10-12T19:50:20.490Z,28.73
2022-10-12T19:52:48.784Z,28.77
2022-10-12T19:55:18.665Z,29.87
2022-10-12T19:57:48.743Z,28.70
2022-10-12T20:00:18.054Z,27.40
2022-10-12T20:02:45.793Z,27.80
2022-10-12T20:05:13.430Z,26.87
2022-10-12T20:07:40.978Z,25.60
2022-10-12T20:10:08.986Z,25.77
2022-10-12T20:12:36.633Z,26.57
2022-10-12T20:15:04.712Z,26.87
2022-10-12T20:17:33.640Z,25.63
2022-10-12T20:20:07.997Z,25.53
2022-10-12T20:22:36.165Z,24.10
2022-10-12T20:25:09.623Z,25.57
2022-10-12T20:27:37.891Z,27.70
2022-10-12T20:30:06.166Z,25.90
2022-10-12T20:32:36.544Z,24.90
2022-10-12T20:35:05.606Z,26.63
2022-10-12T20:37:33.794Z,26.80
2022-10-12T20:40:03.736Z,25.63
2022-10-12T20:42:31.600Z,26.10
2022-10-12T20:45:01.546Z,25.97
2022-10-12T20:47:29.243Z,26.53
2022-10-12T20:49:58.302Z,25.50
2022-10-12T20:52:25.881Z,25.03
2022-10-12T20:54:54.998Z,26.00
2022-10-12T20:57:25.572Z,25.57
2022-10-12T20:59:53.895Z,25.63
2022-10-12T21:02:21.593Z,25.00
2022-10-12T21:04:49.646Z,24.27
2022-10-12T21:07:18.856Z,25.43
2022-10-12T21:09:46.675Z,25.37
2022-10-12T21:12:14.212Z,24.43
2022-10-12T21:14:41.724Z,22.37
2022-10-12T21:17:09.268Z,24.40
2022-10-12T21:19:36.769Z,24.20
2022-10-12T21:22:04.331Z,24.63
2022-10-12T21:24:33.271Z,24.37
2022-10-12T21:27:00.819Z,24.70
2022-10-12T21:29:28.418Z,24.33
2022-10-12T21:31:55.992Z,23.60
2022-10-12T21:34:23.692Z,23.80
2022-10-12T21:36:51.168Z,23.53
2022-10-12T21:39:18.781Z,25.43
2022-10-12T21:41:47.973Z,25.90
2022-10-12T21:44:15.603Z,25.43
2022-10-12T21:46:43.237Z,25.07
2022-10-12T21:49:14.391Z,27.53
2022-10-12T21:51:41.964Z,25.80
2022-10-12T21:54:09.782Z,27.27
2022-10-12T21:56:37.780Z,26.17
2022-10-12T21:59:07.103Z,26.73
2022-10-12T22:01:35.670Z,26.90
2022-10-12T22:04:04.379Z,27.20
2022-10-12T22:06:32.347Z,27.50
2022-10-12T22:09:00.723Z,28.13
2022-10-12T22:11:29.508Z,26.03
2022-10-12T22:13:58.241Z,27.17
2022-10-12T22:16:28.018Z,26.70
2022-10-12T22:18:57.419Z,26.13
2022-10-12T22:21:25.038Z,29.60
2022-10-12T22:23:52.822Z,28.00
2022-10-12T22:33:18.198Z,27.67
2022-10-12T22:35:52.503Z,26.23
2022-10-12T22:38:20.387Z,28.90
2022-10-12T22:40:54.332Z,28.23
2022-10-12T22:43:21.995Z,29.23
2022-10-12T22:45:49.686Z,28.23
2022-10-12T22:48:18.689Z,29.00
2022-10-12T22:50:46.382Z,28.33
2022-10-12T22:53:14.488Z,29.10
2022-10-12T22:55:41.970Z,27.00
2022-10-12T22:58:09.863Z,27.07
2022-10-12T23:00:37.726Z,25.47
2022-10-12T23:03:05.433Z,25.53
2022-10-12T23:05:34.202Z,25.93
2022-10-12T23:08:01.661Z,26.33
2022-10-12T23:10:30.533Z,25.93
2022-10-12T23:12:58.379Z,26.13
2022-10-12T23:15:25.926Z,27.27
2022-10-12T23:17:54.761Z,27.37
2022-10-12T23:20:22.258Z,25.37
2022-10-12T23:22:51.035Z,26.07
2022-10-12T23:25:18.509Z,26.97
2022-10-12T23:27:45.944Z,26.17
2022-10-12T23:30:13.357Z,26.13
2022-10-12T23:32:40.884Z,27.57
2022-10-12T23:35:08.761Z,25.80
2022-10-12T23:37:37.422Z,25.90
2022-10-12T23:40:08.697Z,25.10
2022-10-12T23:42:38.246Z,26.33
2022-10-12T23:45:05.932Z,26.60
2022-10-12T23:47:33.585Z,26.67
2022-10-12T23:50:01.025Z,25.80
2022-10-12T23:52:29.096Z,26.80
2022-10-12T23:54:56.729Z,25.20
2022-10-12T23:57:45.755Z,24.73
